createdAt,value
2019-06-26T00:00:41.482Z,18.60
2019-06-26T00:03:07.687Z,18.50
2019-06-26T00:05:33.869Z,18.40
2019-06-26T00:08:00.031Z,18.40
2019-06-26T00:10:26.208Z,18.50
2019-06-26T00:12:52.608Z,18.50
2019-06-26T00:15:18.791Z,18.40
2019-06-26T00:17:44.969Z,18.30
2019-06-26T00:20:11.499Z,18.20
2019-06-26T00:22:37.693Z,18.10
2019-06-26T00:25:05.251Z,18.00
2019-06-26T00:27:31.459Z,17.90
2019-06-26T00:29:57.682Z,17.80
2019-06-26T00:32:23.814Z,17.90
2019-06-26T00:34:50.248Z,17.90
2019-06-26T00:37:16.413Z,17.80
2019-06-26T00:39:42.583Z,18.00
2019-06-26T00:42:08.802Z,17.90
2019-06-26T00:44:34.963Z,17.90
2019-06-26T00:47:01.130Z,17.80
2019-06-26T00:49:27.454Z,17.80
2019-06-26T00:51:53.602Z,17.60
2019-06-26T00:54:19.762Z,17.40
2019-06-26T00:56:45.974Z,17.30
2019-06-26T00:59:12.147Z,17.40
2019-06-26T01:01:38.725Z,17.30
2019-06-26T01:04:06.898Z,17.50
2019-06-26T01:06:34.974Z,17.50
2019-06-26T01:09:02.452Z,17.60
2019-06-26T01:11:29.058Z,17.70
2019-06-26T01:13:58.334Z,17.70
2019-06-26T01:16:23.180Z,17.70
2019-06-26T01:18:49.456Z,17.70
2019-06-26T01:21:15.626Z,17.70
2019-06-26T01:23:41.818Z,17.70
2019-06-26T01:26:08.092Z,17.70
2019-06-26T01:28:34.273Z,17.80
2019-06-26T01:31:00.455Z,17.80
2019-06-26T01:33:26.744Z,17.70
2019-06-26T01:35:52.918Z,17.60
2019-06-26T01:38:19.087Z,17.50
2019-06-26T01:40:45.391Z,17.50
2019-06-26T01:43:11.575Z,17.40
2019-06-26T01:45:37.751Z,17.50
2019-06-26T01:48:03.946Z,17.50
2019-06-26T01:50:30.119Z,17.50
2019-06-26T01:52:56.594Z,17.40
2019-06-26T01:55:22.878Z,17.40
2019-06-26T01:57:49.054Z,17.40
2019-06-26T02:00:15.262Z,17.40
2019-06-26T02:02:42.824Z,17.40
2019-06-26T02:05:08.987Z,17.30
2019-06-26T02:07:35.268Z,17.20
2019-06-26T02:10:02.009Z,17.20
2019-06-26T02:12:28.187Z,17.20
2019-06-26T02:14:54.363Z,17.10
2019-06-26T02:17:20.568Z,17.10
2019-06-26T02:19:46.739Z,17.10
2019-06-26T02:22:12.906Z,17.10
2019-06-26T02:24:39.135Z,17.20
2019-06-26T02:27:05.279Z,17.30
2019-06-26T02:29:31.454Z,17.10
2019-06-26T02:31:57.662Z,17.10
2019-06-26T02:34:23.824Z,17.20
2019-06-26T02:36:50.005Z,16.90
2019-06-26T02:39:16.196Z,17.00
2019-06-26T02:41:42.379Z,17.00
2019-06-26T02:44:08.553Z,16.90
2019-06-26T02:46:34.780Z,16.80
2019-06-26T02:49:00.930Z,16.80
2019-06-26T02:51:27.103Z,16.80
2019-06-26T02:53:53.308Z,16.80
2019-06-26T02:56:19.486Z,16.80
2019-06-26T02:58:45.690Z,16.80
2019-06-26T03:01:11.843Z,16.90
2019-06-26T03:03:39.013Z,16.90
2019-06-26T03:06:05.179Z,16.90
2019-06-26T03:08:31.382Z,17.00
2019-06-26T03:10:57.558Z,17.00
2019-06-26T03:13:23.755Z,16.90
2019-06-26T03:15:50.784Z,17.00
2019-06-26T03:18:17.138Z,16.90
2019-06-26T03:20:47.126Z,16.90
2019-06-26T03:23:13.330Z,16.90
2019-06-26T03:25:39.494Z,16.80
2019-06-26T03:28:05.682Z,16.80
2019-06-26T03:30:31.879Z,16.90
2019-06-26T03:32:58.060Z,17.00
2019-06-26T03:35:24.222Z,17.10
2019-06-26T03:37:50.535Z,17.20
2019-06-26T03:40:16.711Z,17.00
2019-06-26T03:42:42.892Z,17.10
2019-06-26T03:45:24.534Z,17.10
2019-06-26T03:47:37.326Z,17.20
2019-06-26T03:50:05.002Z,17.20
2019-06-26T03:52:31.279Z,17.20
2019-06-26T03:54:57.447Z,17.20
2019-06-26T03:57:23.622Z,17.20
2019-06-26T03:59:49.826Z,17.00
2019-06-26T04:02:16.004Z,17.10
2019-06-26T04:04:42.614Z,17.00
2019-06-26T04:07:08.894Z,16.90
2019-06-26T04:09:35.087Z,16.90
2019-06-26T04:12:02.666Z,16.80
2019-06-26T04:14:28.855Z,16.80
2019-06-26T04:16:55.022Z,16.80
2019-06-26T04:19:21.401Z,16.80
2019-06-26T04:21:47.585Z,16.80
2019-06-26T04:24:13.753Z,16.80
2019-06-26T04:26:39.918Z,16.80
2019-06-26T04:29:06.185Z,16.80
2019-06-26T04:31:32.365Z,16.80
2019-06-26T04:33:58.533Z,16.80
2019-06-26T04:36:24.760Z,17.00
2019-06-26T04:38:50.890Z,17.00
2019-06-26T04:41:17.072Z,17.00
2019-06-26T04:43:43.349Z,17.10
2019-06-26T04:46:09.826Z,16.90
2019-06-26T04:48:35.992Z,16.90
2019-06-26T04:51:02.189Z,16.90
2019-06-26T04:53:28.357Z,16.90
2019-06-26T04:55:54.601Z,17.00
2019-06-26T04:58:20.733Z,17.00
2019-06-26T05:00:46.895Z,17.00
2019-06-26T05:03:13.175Z,17.00
2019-06-26T05:05:40.315Z,17.10
2019-06-26T05:08:06.641Z,17.10
2019-06-26T05:10:32.818Z,17.20
2019-06-26T05:12:59.012Z,17.10
2019-06-26T05:15:25.182Z,17.00
2019-06-26T05:17:51.349Z,17.10
2019-06-26T05:20:17.818Z,17.10
2019-06-26T05:22:43.996Z,17.00
2019-06-26T05:25:10.161Z,17.00
2019-06-26T05:27:36.358Z,17.10
2019-06-26T05:30:04.965Z,17.00
2019-06-26T05:32:31.122Z,17.00
2019-06-26T05:34:57.440Z,17.00
2019-06-26T05:37:23.605Z,17.10
2019-06-26T05:39:49.886Z,17.20
2019-06-26T05:42:16.412Z,17.10
2019-06-26T05:44:42.582Z,17.20
2019-06-26T05:47:08.753Z,17.30
2019-06-26T05:49:35.165Z,17.40
2019-06-26T05:52:02.169Z,17.40
2019-06-26T05:54:28.698Z,17.30
2019-06-26T05:56:55.153Z,17.30
2019-06-26T05:59:21.318Z,17.30
2019-06-26T06:01:47.504Z,17.40
2019-06-26T06:04:13.900Z,17.40
2019-06-26T06:06:42.375Z,17.50
2019-06-26T06:09:08.681Z,17.50
2019-06-26T06:11:34.883Z,17.40
2019-06-26T06:14:01.897Z,17.30
2019-06-26T06:16:28.077Z,17.40
2019-06-26T06:18:54.562Z,17.50
2019-06-26T06:21:20.730Z,17.60
2019-06-26T06:23:46.902Z,17.50
2019-06-26T06:26:13.248Z,17.40
2019-06-26T06:28:39.386Z,17.40
2019-06-26T06:31:05.555Z,17.40
2019-06-26T06:33:31.766Z,17.40
2019-06-26T06:35:57.935Z,17.30
2019-06-26T06:38:24.161Z,17.50
2019-06-26T06:40:51.017Z,17.50
2019-06-26T06:43:17.195Z,17.40
2019-06-26T06:45:43.367Z,17.50
2019-06-26T06:48:09.761Z,17.70
2019-06-26T06:50:35.938Z,17.70
2019-06-26T06:53:02.114Z,17.70
2019-06-26T06:55:28.390Z,17.60
2019-06-26T06:57:54.555Z,17.50
2019-06-26T07:00:20.738Z,17.50
2019-06-26T07:02:46.959Z,17.50
2019-06-26T07:05:13.127Z,17.40
2019-06-26T07:07:40.346Z,17.40
2019-06-26T07:10:07.051Z,17.70
2019-06-26T07:12:33.813Z,17.90
2019-06-26T07:14:59.994Z,17.80
2019-06-26T07:17:26.491Z,17.80
2019-06-26T07:19:52.682Z,17.80
2019-06-26T07:22:18.973Z,17.80
2019-06-26T07:24:45.397Z,18.00
2019-06-26T07:27:11.665Z,18.00
2019-06-26T07:29:37.935Z,17.90
2019-06-26T07:32:04.168Z,18.00
2019-06-26T07:34:30.318Z,17.90
2019-06-26T07:36:56.508Z,17.90
2019-06-26T07:39:22.758Z,17.90
2019-06-26T07:41:48.921Z,18.00
2019-06-26T07:44:15.094Z,18.30
2019-06-26T07:46:41.451Z,18.50
2019-06-26T07:49:07.614Z,18.30
2019-06-26T07:51:33.903Z,18.20
2019-06-26T07:54:00.416Z,18.30
2019-06-26T07:56:26.602Z,18.10
2019-06-26T07:58:52.902Z,18.10
2019-06-26T08:01:19.150Z,18.20
2019-06-26T08:03:45.378Z,18.20
2019-06-26T08:06:11.581Z,18.30
2019-06-26T08:08:38.893Z,18.20
2019-06-26T08:11:06.599Z,18.20
2019-06-26T08:13:32.940Z,18.10
2019-06-26T08:15:59.256Z,18.10
2019-06-26T08:18:25.426Z,18.00
2019-06-26T08:21:10.582Z,18.10
2019-06-26T08:23:19.598Z,18.10
2019-06-26T08:25:45.777Z,18.00
2019-06-26T08:28:11.974Z,17.90
2019-06-26T08:30:38.184Z,17.80
2019-06-26T08:33:04.343Z,17.70
2019-06-26T08:35:30.515Z,17.90
2019-06-26T08:38:09.865Z,17.80
2019-06-26T08:40:24.777Z,18.00
2019-06-26T08:42:50.951Z,18.10
2019-06-26T08:45:17.851Z,18.20
2019-06-26T08:47:44.117Z,18.10
2019-06-26T08:50:11.685Z,18.00
2019-06-26T08:52:37.927Z,18.10
2019-06-26T08:55:07.318Z,18.00
2019-06-26T08:57:33.483Z,18.00
2019-06-26T08:59:59.826Z,18.10
2019-06-26T09:02:25.995Z,18.10
2019-06-26T09:04:52.171Z,18.30
2019-06-26T09:07:18.615Z,18.30
2019-06-26T09:09:45.067Z,18.20
2019-06-26T09:12:11.237Z,18.20
2019-06-26T09:14:37.716Z,18.10
2019-06-26T09:17:03.881Z,18.00
2019-06-26T09:19:30.070Z,18.00
2019-06-26T09:21:56.395Z,18.00
2019-06-26T09:24:22.575Z,18.00
2019-06-26T09:26:48.747Z,18.10
2019-06-26T09:29:15.278Z,17.90
2019-06-26T09:31:41.460Z,18.10
2019-06-26T09:34:07.618Z,18.10
2019-06-26T09:36:33.904Z,18.20
2019-06-26T09:39:00.086Z,18.10
2019-06-26T09:41:26.311Z,18.10
2019-06-26T09:43:52.448Z,18.30
2019-06-26T09:46:18.623Z,18.20
2019-06-26T09:48:52.753Z,18.20
2019-06-26T09:51:12.911Z,18.30
2019-06-26T09:53:47.098Z,18.20
2019-06-26T09:56:07.063Z,18.20
2019-06-26T09:58:33.361Z,18.10
2019-06-26T10:00:59.535Z,18.00
2019-06-26T10:03:25.739Z,17.90
2019-06-26T10:05:51.933Z,17.90
2019-06-26T10:08:18.109Z,17.90
2019-06-26T10:10:44.630Z,18.00
2019-06-26T10:13:10.965Z,17.80
2019-06-26T10:15:37.129Z,17.80
2019-06-26T10:18:03.401Z,17.80
2019-06-26T10:20:29.601Z,17.80
2019-06-26T10:22:55.779Z,17.90
2019-06-26T10:25:21.942Z,17.90
2019-06-26T10:27:48.218Z,17.80
2019-06-26T10:30:14.493Z,17.90
2019-06-26T10:32:41.911Z,18.10
2019-06-26T10:35:08.510Z,18.10
2019-06-26T10:37:34.700Z,18.20
2019-06-26T10:40:00.859Z,17.90
2019-06-26T10:42:27.131Z,18.00
2019-06-26T10:44:53.307Z,18.00
2019-06-26T10:47:19.485Z,18.20
2019-06-26T10:49:45.694Z,18.00
2019-06-26T10:52:11.863Z,18.00
2019-06-26T10:54:38.030Z,18.20
2019-06-26T10:57:04.333Z,18.00
2019-06-26T10:59:30.500Z,18.10
2019-06-26T11:01:56.802Z,18.10
2019-06-26T11:04:22.983Z,18.20
2019-06-26T11:06:49.249Z,18.00
2019-06-26T11:09:15.614Z,18.00
2019-06-26T11:11:43.094Z,18.30
2019-06-26T11:14:09.339Z,18.30
2019-06-26T11:16:35.528Z,18.20
2019-06-26T11:19:02.088Z,18.30
2019-06-26T11:21:28.262Z,18.40
2019-06-26T11:23:54.627Z,18.40
2019-06-26T11:26:20.910Z,18.50
2019-06-26T11:28:47.090Z,18.40
2019-06-26T11:31:13.326Z,18.40
2019-06-26T11:33:39.635Z,18.50
2019-06-26T11:36:05.809Z,18.50
2019-06-26T11:38:31.983Z,18.70
2019-06-26T11:41:01.728Z,18.60
2019-06-26T11:43:26.159Z,18.50
2019-06-26T11:45:52.343Z,18.60
2019-06-26T11:48:18.543Z,18.40
2019-06-26T11:50:44.820Z,18.30
2019-06-26T11:53:11.096Z,18.50
2019-06-26T11:55:37.462Z,18.40
2019-06-26T11:58:03.734Z,18.20
2019-06-26T12:00:30.814Z,18.50
2019-06-26T12:02:58.184Z,18.70
2019-06-26T12:05:24.716Z,18.40
2019-06-26T12:07:51.464Z,18.40
2019-06-26T12:10:18.438Z,18.50
2019-06-26T12:12:46.258Z,18.50
2019-06-26T12:15:12.522Z,18.30
2019-06-26T12:17:38.728Z,18.40
2019-06-26T12:20:17.972Z,18.30
2019-06-26T12:22:33.862Z,18.60
2019-06-26T12:25:00.508Z,18.50
2019-06-26T12:27:26.968Z,18.70
2019-06-26T12:29:53.139Z,18.70
2019-06-26T12:32:19.334Z,18.70
2019-06-26T12:34:45.507Z,18.50
2019-06-26T12:37:11.686Z,18.40
2019-06-26T12:39:38.057Z,18.30
2019-06-26T12:42:04.384Z,18.40
2019-06-26T12:44:30.609Z,18.40
2019-06-26T12:46:56.831Z,18.50
2019-06-26T12:49:23.065Z,18.40
2019-06-26T12:51:49.179Z,18.40
2019-06-26T12:54:15.523Z,18.30
2019-06-26T12:56:41.883Z,18.30
2019-06-26T12:59:08.054Z,18.50
2019-06-26T13:01:34.251Z,18.40
2019-06-26T13:04:00.452Z,18.40
2019-06-26T13:06:26.809Z,18.40
2019-06-26T13:08:53.018Z,18.50
2019-06-26T13:11:19.185Z,18.40
2019-06-26T13:14:01.386Z,18.40
2019-06-26T13:16:13.932Z,18.50
2019-06-26T13:18:40.116Z,18.50
2019-06-26T13:21:06.289Z,18.50
2019-06-26T13:23:32.461Z,18.50
2019-06-26T13:25:58.625Z,18.60
2019-06-26T13:28:24.890Z,18.40
2019-06-26T13:30:53.311Z,18.40
2019-06-26T13:33:19.067Z,18.50
2019-06-26T13:35:45.236Z,18.50
2019-06-26T13:38:11.434Z,18.40
2019-06-26T13:40:40.822Z,18.40
2019-06-26T13:43:05.592Z,18.50
2019-06-26T13:45:31.934Z,18.60
2019-06-26T13:47:58.108Z,18.70
2019-06-26T13:50:24.282Z,18.90
2019-06-26T13:52:50.511Z,18.90
2019-06-26T13:55:16.675Z,18.80
2019-06-26T13:57:42.847Z,18.80
2019-06-26T14:00:09.419Z,18.90
2019-06-26T14:02:35.595Z,19.00
2019-06-26T14:05:01.978Z,18.80
2019-06-26T14:07:28.406Z,18.90
2019-06-26T14:09:54.587Z,19.00
2019-06-26T14:12:20.754Z,18.90
2019-06-26T14:14:57.395Z,18.90
2019-06-26T14:17:16.498Z,18.80
2019-06-26T14:19:42.667Z,18.80
2019-06-26T14:22:08.870Z,18.90
2019-06-26T14:24:35.048Z,18.90
2019-06-26T14:27:01.283Z,19.10
2019-06-26T14:29:27.485Z,19.00
2019-06-26T14:31:53.742Z,19.10
2019-06-26T14:34:19.970Z,18.80
2019-06-26T14:36:46.331Z,18.80
2019-06-26T14:39:12.539Z,19.00
2019-06-26T14:41:39.321Z,19.20
2019-06-26T14:44:05.924Z,19.30
2019-06-26T14:46:32.088Z,19.30
2019-06-26T14:48:58.258Z,19.20
2019-06-26T14:51:40.954Z,19.00
2019-06-26T14:53:52.511Z,18.90
2019-06-26T14:56:18.689Z,19.30
2019-06-26T14:58:44.881Z,19.20
2019-06-26T15:01:11.062Z,19.00
2019-06-26T15:03:37.234Z,18.80
2019-06-26T15:06:15.939Z,18.80
2019-06-26T15:08:31.799Z,19.30
2019-06-26T15:10:58.071Z,19.40
2019-06-26T15:13:24.451Z,19.30
2019-06-26T15:15:54.733Z,19.00
2019-06-26T15:18:20.007Z,19.10
2019-06-26T15:20:46.319Z,19.00
2019-06-26T15:23:12.491Z,19.10
2019-06-26T15:25:38.670Z,18.80
2019-06-26T15:28:04.991Z,18.90
2019-06-26T15:30:31.222Z,19.00
2019-06-26T15:32:57.338Z,19.00
2019-06-26T15:35:23.681Z,19.00
2019-06-26T15:37:49.955Z,19.20
2019-06-26T15:40:16.335Z,19.20
2019-06-26T15:42:42.676Z,19.00
2019-06-26T15:45:08.951Z,19.10
2019-06-26T15:47:35.131Z,18.90
2019-06-26T15:50:04.119Z,19.20
2019-06-26T15:52:31.568Z,19.30
2019-06-26T15:54:58.071Z,19.10
2019-06-26T15:57:24.442Z,18.80
2019-06-26T15:59:50.800Z,18.70
2019-06-26T16:02:17.068Z,18.60
2019-06-26T16:04:43.268Z,18.70
2019-06-26T16:07:09.470Z,19.00
2019-06-26T16:09:35.609Z,18.70
2019-06-26T16:12:02.145Z,18.60
2019-06-26T16:14:28.300Z,18.70
2019-06-26T16:16:58.035Z,18.60
2019-06-26T16:19:25.400Z,18.30
2019-06-26T16:21:51.570Z,18.30
2019-06-26T16:24:17.846Z,18.70
2019-06-26T16:26:44.175Z,18.90
2019-06-26T16:29:10.317Z,19.10
2019-06-26T16:31:36.593Z,19.40
2019-06-26T16:34:03.185Z,19.10
2019-06-26T16:36:29.526Z,19.30
2019-06-26T16:38:55.698Z,19.50
2019-06-26T16:41:22.070Z,19.00
2019-06-26T16:43:48.347Z,19.00
2019-06-26T16:46:14.526Z,19.20
2019-06-26T16:48:40.735Z,19.10
2019-06-26T16:51:06.911Z,19.00
2019-06-26T16:53:35.438Z,19.20
2019-06-26T16:56:01.891Z,19.10
2019-06-26T16:58:28.087Z,19.30
2019-06-26T17:00:54.252Z,19.30
2019-06-26T17:03:20.458Z,19.00
2019-06-26T17:05:46.722Z,18.90
2019-06-26T17:08:12.906Z,19.40
2019-06-26T17:10:39.100Z,18.90
2019-06-26T17:13:05.280Z,19.00
2019-06-26T17:15:31.455Z,18.90
2019-06-26T17:17:58.252Z,19.00
2019-06-26T17:20:24.430Z,19.00
2019-06-26T17:23:04.444Z,18.80
2019-06-26T17:25:18.606Z,18.70
2019-06-26T17:27:44.898Z,18.80
2019-06-26T17:30:11.751Z,19.00
2019-06-26T17:32:37.972Z,18.80
2019-06-26T17:35:05.123Z,18.60
2019-06-26T17:37:31.323Z,18.80
2019-06-26T17:39:57.802Z,19.20
2019-06-26T17:42:23.977Z,19.20
2019-06-26T17:44:50.455Z,19.10
2019-06-26T17:47:16.779Z,19.20
2019-06-26T17:49:42.947Z,19.50
2019-06-26T17:52:09.351Z,19.20
2019-06-26T17:54:35.658Z,19.00
2019-06-26T17:57:01.887Z,18.90
2019-06-26T17:59:28.038Z,18.90
2019-06-26T18:01:54.245Z,18.90
2019-06-26T18:04:20.424Z,18.60
2019-06-26T18:06:46.598Z,18.20
2019-06-26T18:09:12.927Z,18.20
2019-06-26T18:11:39.103Z,18.40
2019-06-26T18:14:05.284Z,18.30
2019-06-26T18:16:31.587Z,18.30
2019-06-26T18:18:58.324Z,18.60
2019-06-26T18:21:24.570Z,18.70
2019-06-26T18:23:50.930Z,18.40
2019-06-26T18:26:17.213Z,18.20
2019-06-26T18:28:43.374Z,18.60
2019-06-26T18:31:09.581Z,18.60
2019-06-26T18:33:35.750Z,18.40
2019-06-26T18:36:01.944Z,18.40
2019-06-26T18:38:28.490Z,18.30
2019-06-26T18:40:54.670Z,18.40
2019-06-26T18:43:20.845Z,18.70
2019-06-26T18:45:47.335Z,18.40
2019-06-26T18:48:13.455Z,18.40
2019-06-26T18:50:39.732Z,18.40
2019-06-26T18:53:06.042Z,18.20
2019-06-26T18:55:32.320Z,18.20
2019-06-26T18:57:58.600Z,18.10
2019-06-26T19:00:25.152Z,18.10
2019-06-26T19:02:51.435Z,18.00
2019-06-26T19:05:17.606Z,17.90
2019-06-26T19:07:43.831Z,18.00
2019-06-26T19:10:10.159Z,18.00
2019-06-26T19:12:36.478Z,18.00
2019-06-26T19:15:04.066Z,17.90
2019-06-26T19:17:30.240Z,17.90
2019-06-26T19:19:56.811Z,17.90
2019-06-26T19:22:23.250Z,17.80
2019-06-26T19:24:49.492Z,17.80
2019-06-26T19:27:15.801Z,17.70
2019-06-26T19:29:42.007Z,17.70
2019-06-26T19:32:08.486Z,17.80
2019-06-26T19:34:34.655Z,17.80
2019-06-26T19:37:00.866Z,17.70
2019-06-26T19:39:27.044Z,17.70
2019-06-26T19:41:53.219Z,17.70
2019-06-26T19:44:19.723Z,17.70
2019-06-26T19:46:45.898Z,17.60
2019-06-26T19:49:12.078Z,17.60
2019-06-26T19:51:38.275Z,17.60
2019-06-26T19:54:04.450Z,17.60
2019-06-26T19:56:30.631Z,17.60
2019-06-26T19:58:56.902Z,17.60
2019-06-26T20:01:23.128Z,17.50
2019-06-26T20:03:49.242Z,17.50
2019-06-26T20:06:15.449Z,17.50
2019-06-26T20:08:52.268Z,17.50
2019-06-26T20:11:09.587Z,17.60
2019-06-26T20:13:35.791Z,17.50
2019-06-26T20:16:01.958Z,17.50
2019-06-26T20:18:28.127Z,17.50
2019-06-26T20:20:54.782Z,17.50
2019-06-26T20:23:20.958Z,17.60
2019-06-26T20:25:47.134Z,17.50
2019-06-26T20:28:13.564Z,17.50
2019-06-26T20:30:39.751Z,17.50
2019-06-26T20:33:05.923Z,17.50
2019-06-26T20:35:32.122Z,17.50
2019-06-26T20:37:58.298Z,17.50
2019-06-26T20:40:24.469Z,17.50
2019-06-26T20:42:50.772Z,17.60
2019-06-26T20:45:17.056Z,17.60
2019-06-26T20:47:43.226Z,17.40
2019-06-26T20:50:09.613Z,17.50
2019-06-26T20:52:35.791Z,17.50
2019-06-26T20:55:02.989Z,17.50
2019-06-26T20:57:29.387Z,17.50
2019-06-26T20:59:55.566Z,17.50
2019-06-26T21:02:21.743Z,17.40
2019-06-26T21:04:47.938Z,17.40
2019-06-26T21:07:14.447Z,17.40
2019-06-26T21:09:40.642Z,17.40
2019-06-26T21:12:07.086Z,17.40
2019-06-26T21:14:33.253Z,17.40
2019-06-26T21:16:59.432Z,17.40
2019-06-26T21:19:25.753Z,17.40
2019-06-26T21:21:52.594Z,17.40
2019-06-26T21:24:19.418Z,17.40
2019-06-26T21:26:45.902Z,17.40
2019-06-26T21:29:12.072Z,17.40
2019-06-26T21:31:38.250Z,17.40
2019-06-26T21:34:04.597Z,17.50
2019-06-26T21:36:30.759Z,17.40
2019-06-26T21:38:56.928Z,17.40
2019-06-26T21:41:23.468Z,17.40
2019-06-26T21:43:49.647Z,17.40
2019-06-26T21:46:15.796Z,17.40
2019-06-26T21:48:42.104Z,17.30
2019-06-26T21:51:08.256Z,17.40
2019-06-26T21:53:34.410Z,17.30
2019-06-26T21:56:00.586Z,17.40
2019-06-26T21:58:26.731Z,17.40
2019-06-26T22:00:52.873Z,17.40
2019-06-26T22:03:19.681Z,17.30
2019-06-26T22:05:45.833Z,17.30
2019-06-26T22:08:12.076Z,17.30
2019-06-26T22:10:38.262Z,17.30
2019-06-26T22:13:04.414Z,17.30
2019-06-26T22:15:30.564Z,17.30
2019-06-26T22:17:57.033Z,17.30
2019-06-26T22:20:23.181Z,17.30
2019-06-26T22:22:49.865Z,17.30
2019-06-26T22:25:16.764Z,17.30
2019-06-26T22:27:42.904Z,17.30
2019-06-26T22:30:09.474Z,17.30
2019-06-26T22:32:35.836Z,17.20
2019-06-26T22:35:04.912Z,17.20
2019-06-26T22:37:31.150Z,17.20
2019-06-26T22:39:57.621Z,17.20
2019-06-26T22:42:23.773Z,17.20
2019-06-26T22:44:50.046Z,17.10
2019-06-26T22:47:16.197Z,17.20
2019-06-26T22:49:42.352Z,17.10
2019-06-26T22:52:08.500Z,17.10
2019-06-26T22:54:34.753Z,17.10
2019-06-26T22:57:00.979Z,17.10
2019-06-26T22:59:27.250Z,17.10
2019-06-26T23:01:53.500Z,17.10
2019-06-26T23:04:19.650Z,17.10
2019-06-26T23:06:45.805Z,17.10
2019-06-26T23:09:11.981Z,17.10
2019-06-26T23:11:38.128Z,17.10
2019-06-26T23:14:04.319Z,17.20
2019-06-26T23:16:30.449Z,17.10
2019-06-26T23:18:56.749Z,17.10
2019-06-26T23:21:22.895Z,17.10
2019-06-26T23:23:50.836Z,17.10
2019-06-26T23:26:24.122Z,17.10
2019-06-26T23:28:44.919Z,17.10
2019-06-26T23:31:11.257Z,17.10
2019-06-26T23:33:37.501Z,17.00
2019-06-26T23:36:03.653Z,17.00
2019-06-26T23:38:29.816Z,17.00
2019-06-26T23:40:55.981Z,17.00
2019-06-26T23:43:22.128Z,17.00
2019-06-26T23:45:48.292Z,17.00
2019-06-26T23:48:14.437Z,17.00
2019-06-26T23:50:40.581Z,17.00
2019-06-26T23:53:07.012Z,17.00
2019-06-26T23:55:33.160Z,17.00
2019-06-26T23:57:59.757Z,17.00
